createdAt,value
2019-04-26T00:02:00.636Z,14.5
2019-04-26T00:04:55.874Z,14.4
2019-04-26T00:07:51.300Z,14.3
2019-04-26T00:10:46.818Z,14.3
2019-04-26T00:13:42.224Z,14.2
2019-04-26T00:16:37.667Z,14.2
2019-04-26T00:19:33.377Z,14.1
2019-04-26T00:22:28.587Z,14.2
2019-04-26T00:25:24.019Z,14.1
2019-04-26T00:28:19.528Z,14
2019-04-26T00:31:15.560Z,13.9
2019-04-26T00:34:13.520Z,13.8
2019-04-26T00:37:05.774Z,13.9
2019-04-26T00:40:01.213Z,14
2019-04-26T00:42:58.091Z,13.9
2019-04-26T00:45:52.068Z,13.8
2019-04-26T00:48:47.500Z,13.9
2019-04-26T00:51:42.927Z,13.9
2019-04-26T00:54:38.317Z,13.7
2019-04-26T00:57:33.667Z,13.6
2019-04-26T01:00:29.077Z,13.6
2019-04-26T01:03:25.419Z,13.5
2019-04-26T01:06:20.862Z,13.5
2019-04-26T01:09:17.358Z,13.4
2019-04-26T01:12:10.643Z,13.3
2019-04-26T01:15:05.987Z,13.2
2019-04-26T01:18:01.360Z,13.2
2019-04-26T01:20:56.741Z,13
2019-04-26T01:23:52.106Z,12.9
2019-04-26T01:26:47.511Z,12.8
2019-04-26T01:29:42.915Z,12.8
2019-04-26T01:32:38.196Z,12.7
2019-04-26T01:35:38.570Z,12.8
2019-04-26T01:38:29.044Z,12.8
2019-04-26T01:41:24.451Z,12.7
2019-04-26T01:44:21.597Z,12.8
2019-04-26T01:47:15.057Z,12.7
2019-04-26T01:50:10.403Z,12.7
2019-04-26T01:53:05.795Z,12.7
2019-04-26T01:56:01.173Z,12.7
2019-04-26T01:58:56.590Z,12.6
2019-04-26T02:01:51.974Z,12.5
2019-04-26T02:04:47.390Z,12.5
2019-04-26T02:07:42.772Z,12.5
2019-04-26T02:10:38.168Z,12.5
2019-04-26T02:13:33.567Z,12.5
2019-04-26T02:16:29.597Z,12.4
2019-04-26T02:19:24.662Z,12.3
2019-04-26T02:22:19.638Z,12.3
2019-04-26T02:25:14.885Z,12.2
2019-04-26T02:28:10.337Z,12.2
2019-04-26T02:31:05.815Z,12.2
2019-04-26T02:34:01.010Z,12.2
2019-04-26T02:36:59.332Z,12.2
2019-04-26T02:39:51.575Z,12.2
2019-04-26T02:42:47.002Z,12.1
2019-04-26T02:45:42.337Z,12.1
2019-04-26T02:48:38.347Z,12
2019-04-26T02:51:36.296Z,11.9
2019-04-26T02:54:32.852Z,11.9
2019-04-26T02:57:23.623Z,11.9
2019-04-26T03:00:18.932Z,12
2019-04-26T03:03:14.250Z,11.9
2019-04-26T03:06:09.446Z,11.8
2019-04-26T03:09:04.913Z,11.8
2019-04-26T03:12:00.144Z,11.8
2019-04-26T03:15:14.402Z,11.8
2019-04-26T03:17:50.744Z,11.6
2019-04-26T03:20:46.050Z,11.7
2019-04-26T03:23:59.365Z,11.5
2019-04-26T03:26:40.712Z,11.4
2019-04-26T03:29:36.978Z,11.3
2019-04-26T03:32:27.201Z,11.3
2019-04-26T03:35:22.483Z,11.2
2019-04-26T03:38:17.749Z,11.1
2019-04-26T03:44:08.240Z,11
2019-04-26T03:47:03.430Z,11
2019-04-26T03:49:58.726Z,11.2
2019-04-26T03:52:53.905Z,11.1
2019-04-26T03:55:49.160Z,11.1
2019-04-26T03:58:45.718Z,11.1
2019-04-26T04:01:42.675Z,10.8
2019-04-26T04:04:36.908Z,10.8
2019-04-26T04:07:45.900Z,10.8
2019-04-26T04:10:25.385Z,10.7
2019-04-26T04:13:20.617Z,10.9
2019-04-26T04:16:15.843Z,10.8
2019-04-26T04:19:11.075Z,10.8
2019-04-26T04:22:06.299Z,10.7
2019-04-26T04:25:01.519Z,10.6
2019-04-26T04:27:56.738Z,10.5
2019-04-26T04:30:51.984Z,10.5
2019-04-26T04:33:49.655Z,10.6
2019-04-26T04:36:46.825Z,10.5
2019-04-26T04:39:37.607Z,10.3
2019-04-26T04:42:32.867Z,10.3
2019-04-26T04:45:28.103Z,10.4
2019-04-26T04:48:23.355Z,10.3
2019-04-26T04:51:18.563Z,10.4
2019-04-26T04:54:13.803Z,10.4
2019-04-26T04:57:09.042Z,10.3
2019-04-26T05:00:04.276Z,10.3
2019-04-26T05:02:59.508Z,10.2
2019-04-26T05:06:08.015Z,10.3
2019-04-26T05:08:52.936Z,10.4
2019-04-26T05:11:46.206Z,10.3
2019-04-26T05:14:40.488Z,10.2
2019-04-26T05:17:35.728Z,10.1
2019-04-26T05:20:30.842Z,10.1
2019-04-26T05:23:26.101Z,10
2019-04-26T05:26:21.303Z,10
2019-04-26T05:29:16.499Z,10
2019-04-26T05:32:11.703Z,10.1
2019-04-26T05:35:06.893Z,10.1
2019-04-26T05:38:02.101Z,10.1
2019-04-26T05:40:58.173Z,10.1
2019-04-26T05:43:53.802Z,10.2
2019-04-26T05:46:47.761Z,10.3
2019-04-26T05:49:42.973Z,10.2
2019-04-26T05:52:38.206Z,10.2
2019-04-26T05:55:33.436Z,10.2
2019-04-26T05:58:28.684Z,10.2
2019-04-26T06:01:23.909Z,10.2
2019-04-26T06:04:19.138Z,10.3
2019-04-26T06:07:14.388Z,10.4
2019-04-26T06:10:09.506Z,10.4
2019-04-26T06:13:04.848Z,10.4
2019-04-26T06:16:00.568Z,10.5
2019-04-26T06:18:55.578Z,10.5
2019-04-26T06:21:53.701Z,10.6
2019-04-26T06:24:45.802Z,10.6
2019-04-26T06:27:41.045Z,10.6
2019-04-26T06:30:45.827Z,10.6
2019-04-26T06:33:31.512Z,10.6
2019-04-26T06:36:26.800Z,10.5
2019-04-26T06:39:22.026Z,10.6
2019-04-26T06:42:17.310Z,10.6
2019-04-26T06:45:12.592Z,10.7
2019-04-26T06:48:07.788Z,10.6
2019-04-26T06:51:03.164Z,10.7
2019-04-26T06:53:59.015Z,10.8
2019-04-26T06:56:53.626Z,10.8
2019-04-26T06:59:48.780Z,10.9
2019-04-26T07:02:43.970Z,11
2019-04-26T07:05:39.166Z,10.9
2019-04-26T07:08:34.384Z,11
2019-04-26T07:11:29.572Z,11.1
2019-04-26T07:14:24.782Z,10.6
2019-04-26T07:17:19.960Z,10.9
2019-04-26T07:20:15.161Z,11
2019-04-26T07:23:10.370Z,11.1
2019-04-26T07:26:06.306Z,11.3
2019-04-26T07:29:01.419Z,11.4
2019-04-26T07:31:56.008Z,11.4
2019-04-26T07:34:51.239Z,11.4
2019-04-26T07:37:46.478Z,11.4
2019-04-26T07:40:41.704Z,11.3
2019-04-26T07:43:36.944Z,11.2
2019-04-26T07:46:32.170Z,11.1
2019-04-26T07:49:27.403Z,11.1
2019-04-26T07:52:22.629Z,11.1
2019-04-26T07:55:17.861Z,11.1
2019-04-26T07:58:13.554Z,11.1
2019-04-26T08:01:08.296Z,11.1
2019-04-26T08:04:05.287Z,10.9
2019-04-26T08:06:58.674Z,11
2019-04-26T08:10:00.463Z,10.9
2019-04-26T08:12:49.114Z,11
2019-04-26T08:15:44.342Z,10.5
2019-04-26T08:18:39.503Z,9.1
2019-04-26T08:21:34.623Z,8.7
2019-04-26T08:24:29.763Z,9.4
2019-04-26T08:27:24.841Z,9.8
2019-04-26T08:30:23.087Z,9.9
2019-04-26T08:33:16.415Z,10
2019-04-26T08:36:10.977Z,9.9
2019-04-26T08:39:05.932Z,10.1
2019-04-26T08:42:00.429Z,10.2
2019-04-26T08:44:55.583Z,10.2
2019-04-26T08:47:53.901Z,10.1
2019-04-26T08:50:47.008Z,10.1
2019-04-26T08:53:41.090Z,10.3
2019-04-26T08:56:36.257Z,10.3
2019-04-26T08:59:31.461Z,10.3
2019-04-26T09:02:26.670Z,10.3
2019-04-26T09:05:21.864Z,10.4
2019-04-26T09:08:17.073Z,10.2
2019-04-26T09:11:30.315Z,10.3
2019-04-26T09:14:07.541Z,10.4
2019-04-26T09:17:02.785Z,10.4
2019-04-26T09:19:58.697Z,10.3
2019-04-26T09:23:03.794Z,10.3
2019-04-26T09:25:59.581Z,10.3
2019-04-26T09:28:43.733Z,10.4
2019-04-26T09:31:38.989Z,10.6
2019-04-26T09:34:34.246Z,10.6
2019-04-26T09:37:29.443Z,10.7
2019-04-26T09:40:24.749Z,10.7
2019-04-26T09:43:19.891Z,10.6
2019-04-26T09:46:15.226Z,10.7
2019-04-26T09:49:10.480Z,10.6
2019-04-26T09:52:05.717Z,10.7
2019-04-26T09:55:00.958Z,10.7
2019-04-26T09:57:58.172Z,10.9
2019-04-26T10:00:51.476Z,10.9
2019-04-26T10:03:46.716Z,11
2019-04-26T10:06:41.985Z,10.8
2019-04-26T10:09:37.229Z,10.9
2019-04-26T10:12:32.519Z,11
2019-04-26T10:15:28.629Z,11
2019-04-26T10:18:25.902Z,11.1
2019-04-26T10:21:18.268Z,11
2019-04-26T10:24:13.521Z,11.1
2019-04-26T10:27:08.793Z,11
2019-04-26T10:30:09.648Z,11
2019-04-26T10:33:03.490Z,10.8
2019-04-26T10:35:57.849Z,10.8
2019-04-26T10:38:49.803Z,10.7
2019-04-26T10:41:45.083Z,10.9
2019-04-26T10:44:41.522Z,10.9
2019-04-26T10:47:39.901Z,10.8
2019-04-26T10:50:34.437Z,10.8
2019-04-26T10:53:31.944Z,10.7
2019-04-26T10:56:25.348Z,10.5
2019-04-26T10:59:16.566Z,10.5
2019-04-26T11:02:11.786Z,10.6
2019-04-26T11:05:07.017Z,10.5
2019-04-26T11:08:02.258Z,10.5
2019-04-26T11:10:57.488Z,10.4
2019-04-26T11:13:52.689Z,10.4
2019-04-26T11:16:47.908Z,10.4
2019-04-26T11:19:44.699Z,10.3
2019-04-26T11:22:39.560Z,10.2
2019-04-26T11:25:33.592Z,10
2019-04-26T11:28:28.805Z,9.9
2019-04-26T11:31:29.240Z,9.5
2019-04-26T11:34:23.350Z,9.3
2019-04-26T11:37:19.397Z,9.2
2019-04-26T11:40:15.673Z,9.3
2019-04-26T11:43:04.742Z,9.2
2019-04-26T11:46:05.309Z,8.9
2019-04-26T11:49:03.118Z,8.9
2019-04-26T11:51:50.126Z,8.9
2019-04-26T11:54:45.236Z,8.9
2019-04-26T11:57:43.614Z,8.8
2019-04-26T12:00:35.405Z,8.8
2019-04-26T12:03:30.499Z,8.6
2019-04-26T12:06:25.571Z,8.6
2019-04-26T12:09:20.646Z,8.7
2019-04-26T12:12:15.760Z,8.8
2019-04-26T12:15:10.867Z,8.7
2019-04-26T12:18:11.037Z,8.7
2019-04-26T12:21:02.419Z,8.8
2019-04-26T12:23:56.805Z,8.8
2019-04-26T12:26:55.852Z,8.9
2019-04-26T12:29:49.784Z,8.9
2019-04-26T12:32:41.636Z,8.9
2019-04-26T12:35:36.773Z,8.9
2019-04-26T12:38:31.913Z,8.9
2019-04-26T12:41:40.928Z,8.9
2019-04-26T12:44:22.201Z,8.8
2019-04-26T12:47:17.321Z,8.9
2019-04-26T12:50:12.467Z,8.9
2019-04-26T12:53:07.619Z,8.9
2019-04-26T12:56:02.777Z,8.8
2019-04-26T12:58:57.913Z,8.7
2019-04-26T13:02:06.219Z,8.5
2019-04-26T13:04:48.167Z,8.3
2019-04-26T13:07:44.768Z,8.3
2019-04-26T13:10:38.375Z,8.4
2019-04-26T13:13:33.474Z,8.2
2019-04-26T13:16:28.575Z,7.6
2019-04-26T13:19:23.628Z,7.7
2019-04-26T13:22:18.681Z,7.7
2019-04-26T13:25:26.834Z,7.6
2019-04-26T13:28:08.796Z,7.6
2019-04-26T13:31:03.873Z,7.6
2019-04-26T13:34:04.558Z,7.4
2019-04-26T13:36:54.027Z,7.3
2019-04-26T13:39:55.142Z,7.3
2019-04-26T13:42:51.355Z,7.2
2019-04-26T13:45:39.101Z,7
2019-04-26T13:48:34.075Z,7
2019-04-26T13:51:29.077Z,6.7
2019-04-26T13:54:24.052Z,6.5
2019-04-26T13:57:19.001Z,6.7
2019-04-26T14:00:13.953Z,6.7
2019-04-26T14:03:08.900Z,6.6
2019-04-26T14:06:03.876Z,6.7
2019-04-26T14:09:03.191Z,6.7
2019-04-26T14:11:53.800Z,6.5
2019-04-26T14:14:48.750Z,6.3
2019-04-26T14:17:43.692Z,6.4
2019-04-26T14:20:38.685Z,6.6
2019-04-26T14:23:34.034Z,6.7
2019-04-26T14:26:28.663Z,6.8
2019-04-26T14:29:23.652Z,6.7
2019-04-26T14:32:22.818Z,6.8
2019-04-26T14:35:17.429Z,6.7
2019-04-26T14:38:08.638Z,6.8
2019-04-26T14:41:05.125Z,6.9
2019-04-26T14:43:58.651Z,6.8
2019-04-26T14:46:57.935Z,6.8
2019-04-26T14:49:48.654Z,7
2019-04-26T14:52:43.660Z,7
2019-04-26T14:55:38.675Z,7.2
2019-04-26T14:58:34.116Z,7.3
2019-04-26T15:01:35.034Z,7.2
2019-04-26T15:04:28.050Z,7.2
2019-04-26T15:07:18.747Z,7.3
2019-04-26T15:10:14.397Z,7.5
2019-04-26T15:13:20.836Z,7.5
2019-04-26T15:16:12.273Z,7.4
2019-04-26T15:18:58.873Z,7.5
2019-04-26T15:21:53.904Z,7.7
2019-04-26T15:24:48.973Z,7.7
2019-04-26T15:27:44.622Z,7.6
2019-04-26T15:30:46.957Z,7.5
2019-04-26T15:33:36.349Z,7.6
2019-04-26T15:36:29.140Z,7.7
2019-04-26T15:39:24.245Z,7.6
2019-04-26T15:42:19.341Z,7.6
2019-04-26T15:45:14.447Z,7.6
2019-04-26T15:48:09.542Z,7.6
2019-04-26T15:51:04.667Z,7.6
2019-04-26T15:53:59.801Z,7.7
2019-04-26T15:56:55.704Z,7.7
2019-04-26T15:59:50.101Z,7.6
2019-04-26T16:02:45.242Z,7.7
2019-04-26T16:05:40.333Z,7.7
2019-04-26T16:08:43.915Z,7.9
2019-04-26T16:11:30.604Z,7.8
2019-04-26T16:14:36.720Z,7.9
2019-04-26T16:17:20.835Z,7.9
2019-04-26T16:20:15.954Z,7.9
2019-04-26T16:23:13.833Z,7.9
2019-04-26T16:26:12.698Z,7.8
2019-04-26T16:29:01.289Z,7.9
2019-04-26T16:31:56.437Z,7.9
2019-04-26T16:34:53.299Z,8
2019-04-26T16:37:46.649Z,8
2019-04-26T16:40:53.312Z,8
2019-04-26T16:43:50.745Z,8
2019-04-26T16:46:33.757Z,8
2019-04-26T16:49:27.262Z,8
2019-04-26T16:52:24.228Z,7.8
2019-04-26T16:57:20.967Z,7.8
2019-04-26T16:58:13.124Z,7.8
2019-04-26T17:01:12.379Z,7.8
2019-04-26T17:04:11.209Z,7.8
2019-04-26T17:07:04.867Z,7.8
2019-04-26T17:09:59.871Z,7.9
2019-04-26T17:12:53.984Z,7.9
2019-04-26T17:15:43.338Z,7.8
2019-04-26T17:18:38.085Z,7.8
2019-04-26T17:21:35.112Z,7.8
2019-04-26T17:24:28.253Z,7.8
2019-04-26T17:27:23.341Z,7.7
2019-04-26T17:30:18.410Z,7.7
2019-04-26T17:33:13.579Z,7.5
2019-04-26T17:36:15.577Z,7.6
2019-04-26T17:39:03.605Z,7.5
2019-04-26T17:41:58.684Z,7.5
2019-04-26T17:44:57.493Z,7.6
2019-04-26T17:47:48.833Z,7.6
2019-04-26T17:50:43.867Z,7.6
2019-04-26T17:53:43.959Z,7.5
2019-04-26T17:56:40.079Z,7.4
2019-04-26T17:59:36.920Z,7.5
2019-04-26T18:02:44.808Z,7.6
2019-04-26T18:05:23.170Z,7.6
2019-04-26T18:08:40.920Z,7.7
2019-04-26T18:11:18.456Z,7.8
2019-04-26T18:14:06.951Z,7.8
2019-04-26T18:17:04.066Z,7.7
2019-04-26T18:19:54.230Z,7.7
2019-04-26T18:22:49.282Z,7.8
2019-04-26T18:25:46.454Z,7.7
2019-04-26T18:28:39.378Z,7.8
2019-04-26T18:31:34.460Z,7.7
2019-04-26T18:34:35.018Z,7.8
2019-04-26T18:37:27.806Z,7.8
2019-04-26T18:40:23.007Z,7.8
2019-04-26T18:43:24.523Z,7.7
2019-04-26T18:46:09.789Z,7.7
2019-04-26T18:49:04.945Z,7.7
2019-04-26T18:51:59.862Z,7.7
2019-04-26T18:54:54.908Z,7.7
2019-04-26T18:58:03.941Z,7.7
2019-04-26T19:00:45.005Z,7.7
2019-04-26T19:03:40.040Z,7.7
2019-04-26T19:06:42.147Z,7.7
2019-04-26T19:09:45.379Z,7.7
2019-04-26T19:12:27.460Z,7.7
2019-04-26T19:15:21.887Z,7.7
2019-04-26T19:18:15.233Z,7.7
2019-04-26T19:21:12.003Z,7.6
2019-04-26T19:24:19.291Z,7.6
2019-04-26T19:27:01.758Z,7.6
2019-04-26T19:29:55.396Z,7.6
2019-04-26T19:32:51.970Z,7.6
2019-04-26T19:35:47.902Z,7.6
2019-04-26T19:38:51.191Z,7.6
2019-04-26T19:41:35.641Z,7.6
2019-04-26T19:44:32.000Z,7.6
2019-04-26T19:47:25.907Z,7.7
2019-04-26T19:50:22.324Z,7.6
2019-04-26T19:53:21.249Z,7.6
2019-04-26T19:56:10.813Z,7.5
2019-04-26T19:59:05.663Z,7.5
2019-04-26T20:02:02.015Z,7.6
2019-04-26T20:04:55.609Z,7.5
2019-04-26T20:07:52.331Z,7.3
2019-04-26T20:10:46.345Z,7.3
2019-04-26T20:13:42.385Z,7.4
2019-04-26T20:16:40.691Z,7.3
2019-04-26T20:19:37.691Z,7.4
2019-04-26T20:22:30.496Z,7.4
2019-04-26T20:25:22.177Z,7.4
2019-04-26T20:28:18.847Z,7.4
2019-04-26T20:31:10.301Z,7.3
2019-04-26T20:34:10.622Z,7.3
2019-04-26T20:37:03.548Z,7.3
2019-04-26T20:40:21.690Z,7.3
2019-04-26T20:43:01.568Z,7.3
2019-04-26T20:46:14.720Z,7.4
2019-04-26T20:48:40.063Z,7.4
2019-04-26T20:51:35.034Z,7.3
2019-04-26T20:54:31.193Z,7.3
2019-04-26T20:57:31.207Z,7.3
2019-04-26T21:00:19.988Z,7.3
2019-04-26T21:03:27.422Z,7.3
2019-04-26T21:06:11.800Z,7.3
2019-04-26T21:09:06.883Z,7.2
2019-04-26T21:12:02.754Z,7.2
2019-04-26T21:15:02.238Z,7.2
2019-04-26T21:17:49.644Z,7.2
2019-04-26T21:20:44.598Z,7.2
2019-04-26T21:23:43.866Z,7.1
2019-04-26T21:26:34.511Z,6.9
2019-04-26T21:29:29.474Z,7
2019-04-26T21:32:28.399Z,6.8
2019-04-26T21:35:24.917Z,6.8
2019-04-26T21:38:14.338Z,6.8
2019-04-26T21:41:13.974Z,6.7
2019-04-26T21:44:12.175Z,6.7
2019-04-26T21:46:59.459Z,6.7
2019-04-26T21:50:00.851Z,6.7
2019-04-26T21:52:48.945Z,6.7
2019-04-26T21:55:43.919Z,6.8
2019-04-26T21:58:38.743Z,6.8
2019-04-26T22:01:33.681Z,6.8
2019-04-26T22:04:34.018Z,6.7
2019-04-26T22:07:24.628Z,6.7
2019-04-26T22:10:18.427Z,6.6
2019-04-26T22:13:14.359Z,6.6
2019-04-26T22:16:35.866Z,6.5
2019-04-26T22:19:04.299Z,6.4
2019-04-26T22:22:04.045Z,6.3
2019-04-26T22:24:55.651Z,6.4
2019-04-26T22:27:47.924Z,6.4
2019-04-26T22:30:42.816Z,6.4
2019-04-26T22:33:37.706Z,6.5
2019-04-26T22:36:35.975Z,6.5
2019-04-26T22:39:27.521Z,6.6
2019-04-26T22:42:24.297Z,6.6
2019-04-26T22:45:17.322Z,6.5
2019-04-26T22:48:23.720Z,6.5
2019-04-26T22:51:07.122Z,6.5
2019-04-26T22:54:06.361Z,6.5
2019-04-26T22:56:56.934Z,6.5
2019-04-26T22:59:53.802Z,6.4
2019-04-26T23:02:46.791Z,6.4
2019-04-26T23:05:43.587Z,6.3
2019-04-26T23:08:38.626Z,6.3
2019-04-26T23:11:31.462Z,6.3
2019-04-26T23:14:26.375Z,6.3
2019-04-26T23:17:22.776Z,6.3
2019-04-26T23:20:16.221Z,6.3
2019-04-26T23:23:11.145Z,6.3
2019-04-26T23:26:07.662Z,6.2
2019-04-26T23:29:00.989Z,6.3
2019-04-26T23:31:56.007Z,6.3
2019-04-26T23:34:50.841Z,6.2
2019-04-26T23:37:45.759Z,6.2
2019-04-26T23:40:40.687Z,6.2
2019-04-26T23:43:35.597Z,6.3
2019-04-26T23:46:30.499Z,6.3
2019-04-26T23:49:25.761Z,6.2
2019-04-26T23:52:20.270Z,6.1
2019-04-26T23:55:15.143Z,6
2019-04-26T23:58:13.745Z,6
